sensor_id;sensor_type;location;lat;lon;timestamp;pressure;altitude;pressure_sealevel;temperature;humidity
37710;BME280;60223;34.854;-92.408;2023-04-06T00:01:45;100786.18;;;23.39;39.02
37710;BME280;60223;34.854;-92.408;2023-04-06T00:04:08;100775.99;;;23.27;39.16
37710;BME280;60223;34.854;-92.408;2023-04-06T00:06:35;100785.27;;;23.29;39.14
37710;BME280;60223;34.854;-92.408;2023-04-06T00:09:03;100791.13;;;23.28;39.14
37710;BME280;60223;34.854;-92.408;2023-04-06T00:11:27;100793.39;;;23.28;39.14
37710;BME280;60223;34.854;-92.408;2023-04-06T00:13:53;100809.04;;;23.61;39.05
37710;BME280;60223;34.854;-92.408;2023-04-06T00:16:19;100827.91;;;23.32;39.09
37710;BME280;60223;34.854;-92.408;2023-04-06T00:18:44;100817.36;;;23.25;39.17
37710;BME280;60223;34.854;-92.408;2023-04-06T00:21:11;100812.05;;;23.26;39.08
37710;BME280;60223;34.854;-92.408;2023-04-06T00:23:37;100813.60;;;23.32;38.98
37710;BME280;60223;34.854;-92.408;2023-04-06T00:26:02;100816.78;;;23.30;39.00
37710;BME280;60223;34.854;-92.408;2023-04-06T00:28:27;100825.97;;;23.04;38.98
37710;BME280;60223;34.854;-92.408;2023-04-06T00:30:52;100828.26;;;23.37;38.83
37710;BME280;60223;34.854;-92.408;2023-04-06T00:33:18;100836.88;;;23.55;38.87
37710;BME280;60223;34.854;-92.408;2023-04-06T00:38:11;100847.00;;;23.71;38.51
37710;BME280;60223;34.854;-92.408;2023-04-06T00:40:35;100849.84;;;23.50;38.44
37710;BME280;60223;34.854;-92.408;2023-04-06T00:43:01;100848.36;;;23.62;38.21
37710;BME280;60223;34.854;-92.408;2023-04-06T00:45:24;100855.30;;;23.40;38.48
37710;BME280;60223;34.854;-92.408;2023-04-06T00:47:51;100853.97;;;23.45;38.37
37710;BME280;60223;34.854;-92.408;2023-04-06T00:50:16;100843.75;;;23.34;38.49
37710;BME280;60223;34.854;-92.408;2023-04-06T00:52:43;100841.02;;;23.31;38.17
37710;BME280;60223;34.854;-92.408;2023-04-06T00:55:09;100843.80;;;23.58;38.08
37710;BME280;60223;34.854;-92.408;2023-04-06T00:57:35;100844.64;;;23.49;38.20
37710;BME280;60223;34.854;-92.408;2023-04-06T01:00:01;100849.15;;;23.50;38.21
37710;BME280;60223;34.854;-92.408;2023-04-06T01:02:25;100848.28;;;23.28;38.44
37710;BME280;60223;34.854;-92.408;2023-04-06T01:04:52;100851.61;;;23.19;38.56
37710;BME280;60223;34.854;-92.408;2023-04-06T01:07:18;100856.66;;;23.11;38.69
37710;BME280;60223;34.854;-92.408;2023-04-06T01:09:41;100855.44;;;23.35;38.32
37710;BME280;60223;34.854;-92.408;2023-04-06T01:12:07;100858.55;;;23.26;38.43
37710;BME280;60223;34.854;-92.408;2023-04-06T01:14:31;100864.11;;;23.08;38.36
37710;BME280;60223;34.854;-92.408;2023-04-06T01:17:01;100861.47;;;23.59;37.95
37710;BME280;60223;34.854;-92.408;2023-04-06T01:19:27;100862.65;;;23.11;38.58
37710;BME280;60223;34.854;-92.408;2023-04-06T01:21:51;100864.73;;;23.40;38.22
37710;BME280;60223;34.854;-92.408;2023-04-06T01:24:17;100857.23;;;23.30;38.35
37710;BME280;60223;34.854;-92.408;2023-04-06T01:26:42;100853.86;;;23.26;38.38
37710;BME280;60223;34.854;-92.408;2023-04-06T01:29:08;100856.48;;;23.24;38.43
37710;BME280;60223;34.854;-92.408;2023-04-06T01:31:34;100854.77;;;23.35;38.27
37710;BME280;60223;34.854;-92.408;2023-04-06T01:33:59;100862.74;;;23.35;38.23
37710;BME280;60223;34.854;-92.408;2023-04-06T01:36:25;100866.16;;;23.11;38.28
37710;BME280;60223;34.854;-92.408;2023-04-06T01:38:51;100871.47;;;23.35;38.24
37710;BME280;60223;34.854;-92.408;2023-04-06T01:41:17;100888.79;;;23.24;38.38
37710;BME280;60223;34.854;-92.408;2023-04-06T01:43:43;100912.47;;;23.31;38.27
37710;BME280;60223;34.854;-92.408;2023-04-06T01:46:07;100921.19;;;23.12;38.55
37710;BME280;60223;34.854;-92.408;2023-04-06T01:48:32;100930.65;;;23.19;38.14
37710;BME280;60223;34.854;-92.408;2023-04-06T01:50:58;100941.04;;;23.57;38.26
37710;BME280;60223;34.854;-92.408;2023-04-06T01:53:20;100941.14;;;23.46;38.07
37710;BME280;60223;34.854;-92.408;2023-04-06T01:55:50;100943.82;;;23.16;38.45
37710;BME280;60223;34.854;-92.408;2023-04-06T01:58:14;100938.51;;;23.45;38.08
37710;BME280;60223;34.854;-92.408;2023-04-06T02:00:40;100924.67;;;23.37;38.18
37710;BME280;60223;34.854;-92.408;2023-04-06T02:03:04;100920.23;;;23.02;38.62
37710;BME280;60223;34.854;-92.408;2023-04-06T02:05:34;100916.77;;;23.30;38.28
37710;BME280;60223;34.854;-92.408;2023-04-06T02:07:57;100916.39;;;23.30;38.30
37710;BME280;60223;34.854;-92.408;2023-04-06T02:10:23;100934.21;;;23.72;37.94
37710;BME280;60223;34.854;-92.408;2023-04-06T02:12:49;100962.16;;;24.52;36.82
37710;BME280;60223;34.854;-92.408;2023-04-06T02:15:13;100994.38;;;23.65;37.82
37710;BME280;60223;34.854;-92.408;2023-04-06T02:17:40;101027.41;;;23.37;38.28
37710;BME280;60223;34.854;-92.408;2023-04-06T02:20:06;101043.25;;;23.00;38.73
37710;BME280;60223;34.854;-92.408;2023-04-06T02:22:32;101054.16;;;23.19;38.48
37710;BME280;60223;34.854;-92.408;2023-04-06T02:24:57;101068.11;;;22.63;38.85
37710;BME280;60223;34.854;-92.408;2023-04-06T02:27:23;101077.21;;;23.04;38.30
37710;BME280;60223;34.854;-92.408;2023-04-06T02:29:48;101077.14;;;23.16;38.45
37710;BME280;60223;34.854;-92.408;2023-04-06T02:32:14;101082.92;;;23.17;38.38
37710;BME280;60223;34.854;-92.408;2023-04-06T02:34:39;101095.73;;;22.85;38.49
37710;BME280;60223;34.854;-92.408;2023-04-06T02:37:06;101104.52;;;23.43;38.05
37710;BME280;60223;34.854;-92.408;2023-04-06T02:39:31;101120.42;;;22.70;38.66
37710;BME280;60223;34.854;-92.408;2023-04-06T02:41:57;101121.87;;;23.10;38.48
37710;BME280;60223;34.854;-92.408;2023-04-06T02:44:21;101125.32;;;23.09;38.45
37710;BME280;60223;34.854;-92.408;2023-04-06T02:46:48;101118.55;;;23.31;38.48
37710;BME280;60223;34.854;-92.408;2023-04-06T02:49:13;101118.86;;;23.03;38.21
37710;BME280;60223;34.854;-92.408;2023-04-06T02:51:39;101122.68;;;23.14;38.32
37710;BME280;60223;34.854;-92.408;2023-04-06T02:54:03;101117.22;;;23.47;38.31
37710;BME280;60223;34.854;-92.408;2023-04-06T02:56:31;101109.41;;;23.17;38.29
37710;BME280;60223;34.854;-92.408;2023-04-06T02:58:56;101111.05;;;23.13;38.33
37710;BME280;60223;34.854;-92.408;2023-04-06T03:01:23;101098.46;;;23.13;38.03
37710;BME280;60223;34.854;-92.408;2023-04-06T03:03:46;101097.94;;;22.53;38.78
37710;BME280;60223;34.854;-92.408;2023-04-06T03:06:13;101109.21;;;23.32;38.06
37710;BME280;60223;34.854;-92.408;2023-04-06T03:08:39;101130.83;;;23.18;38.21
37710;BME280;60223;34.854;-92.408;2023-04-06T03:11:05;101140.80;;;23.26;38.13
37710;BME280;60223;34.854;-92.408;2023-04-06T03:13:29;101128.86;;;23.38;37.95
37710;BME280;60223;34.854;-92.408;2023-04-06T03:15:56;101111.60;;;23.51;38.04
37710;BME280;60223;34.854;-92.408;2023-04-06T03:18:25;101100.19;;;23.23;38.12
37710;BME280;60223;34.854;-92.408;2023-04-06T03:20:47;101093.51;;;22.67;38.53
37710;BME280;60223;34.854;-92.408;2023-04-06T03:23:11;101083.25;;;22.91;38.46
37710;BME280;60223;34.854;-92.408;2023-04-06T03:25:38;101079.33;;;23.58;37.59
37710;BME280;60223;34.854;-92.408;2023-04-06T03:28:05;101081.86;;;23.07;37.89
37710;BME280;60223;34.854;-92.408;2023-04-06T03:30:31;101074.37;;;23.00;38.31
37710;BME280;60223;34.854;-92.408;2023-04-06T03:32:56;101069.60;;;22.48;38.31
37710;BME280;60223;34.854;-92.408;2023-04-06T03:35:20;101067.60;;;23.00;38.24
37710;BME280;60223;34.854;-92.408;2023-04-06T03:37:45;101067.98;;;23.07;38.16
37710;BME280;60223;34.854;-92.408;2023-04-06T03:40:14;101066.30;;;22.70;38.31
37710;BME280;60223;34.854;-92.408;2023-04-06T03:42:39;101054.97;;;23.13;38.03
37710;BME280;60223;34.854;-92.408;2023-04-06T03:45:05;101048.21;;;23.47;37.85
37710;BME280;60223;34.854;-92.408;2023-04-06T03:47:29;101048.63;;;22.94;37.90
37710;BME280;60223;34.854;-92.408;2023-04-06T03:49:55;101046.52;;;23.29;37.74
37710;BME280;60223;34.854;-92.408;2023-04-06T03:52:21;101041.13;;;23.43;38.19
37710;BME280;60223;34.854;-92.408;2023-04-06T03:54:47;101028.42;;;23.02;38.04
37710;BME280;60223;34.854;-92.408;2023-04-06T03:57:10;101015.02;;;23.16;37.85
37710;BME280;60223;34.854;-92.408;2023-04-06T03:59:38;101020.91;;;23.37;37.52
37710;BME280;60223;34.854;-92.408;2023-04-06T04:02:03;101030.41;;;22.72;37.98
37710;BME280;60223;34.854;-92.408;2023-04-06T04:04:29;101038.71;;;22.99;37.61
37710;BME280;60223;34.854;-92.408;2023-04-06T04:06:55;101041.41;;;23.47;37.65
37710;BME280;60223;34.854;-92.408;2023-04-06T04:09:21;101052.17;;;23.18;37.66
37710;BME280;60223;34.854;-92.408;2023-04-06T04:11:46;101063.64;;;23.21;37.62
37710;BME280;60223;34.854;-92.408;2023-04-06T04:14:12;101082.47;;;22.80;37.84
37710;BME280;60223;34.854;-92.408;2023-04-06T04:16:37;101088.17;;;23.36;37.65
37710;BME280;60223;34.854;-92.408;2023-04-06T04:19:01;101093.07;;;22.98;37.83
37710;BME280;60223;34.854;-92.408;2023-04-06T04:21:28;101110.42;;;23.06;37.81
37710;BME280;60223;34.854;-92.408;2023-04-06T04:23:54;101106.98;;;23.15;37.58
37710;BME280;60223;34.854;-92.408;2023-04-06T04:26:19;101089.24;;;23.23;37.42
37710;BME280;60223;34.854;-92.408;2023-04-06T04:28:44;101078.91;;;23.44;37.39
37710;BME280;60223;34.854;-92.408;2023-04-06T04:31:11;101080.62;;;23.51;37.09
37710;BME280;60223;34.854;-92.408;2023-04-06T04:33:36;101083.66;;;23.64;37.22
37710;BME280;60223;34.854;-92.408;2023-04-06T04:36:00;101081.70;;;22.74;37.64
37710;BME280;60223;34.854;-92.408;2023-04-06T04:38:28;101080.28;;;23.22;37.33
37710;BME280;60223;34.854;-92.408;2023-04-06T04:40:54;101089.86;;;22.99;37.59
37710;BME280;60223;34.854;-92.408;2023-04-06T04:43:19;101093.12;;;23.18;37.65
37710;BME280;60223;34.854;-92.408;2023-04-06T04:45:44;101095.13;;;23.21;37.30
37710;BME280;60223;34.854;-92.408;2023-04-06T04:48:07;101102.61;;;23.07;37.38
37710;BME280;60223;34.854;-92.408;2023-04-06T04:50:36;101118.96;;;23.16;37.29
37710;BME280;60223;34.854;-92.408;2023-04-06T04:53:01;101131.43;;;23.63;37.09
37710;BME280;60223;34.854;-92.408;2023-04-06T04:55:27;101134.01;;;23.17;37.29
37710;BME280;60223;34.854;-92.408;2023-04-06T04:57:51;101130.17;;;23.29;37.11
37710;BME280;60223;34.854;-92.408;2023-04-06T05:00:18;101119.49;;;23.15;37.26
37710;BME280;60223;34.854;-92.408;2023-04-06T05:02:44;101110.76;;;23.45;37.19
37710;BME280;60223;34.854;-92.408;2023-04-06T05:05:09;101124.17;;;23.14;37.31
37710;BME280;60223;34.854;-92.408;2023-04-06T05:07:35;101133.94;;;23.33;37.09
37710;BME280;60223;34.854;-92.408;2023-04-06T05:10:01;101129.63;;;23.35;37.22
37710;BME280;60223;34.854;-92.408;2023-04-06T05:12:26;101127.63;;;23.42;37.14
37710;BME280;60223;34.854;-92.408;2023-04-06T05:14:51;101118.08;;;23.38;37.43
37710;BME280;60223;34.854;-92.408;2023-04-06T05:17:18;101114.18;;;22.81;37.54
37710;BME280;60223;34.854;-92.408;2023-04-06T05:19:41;101120.83;;;23.23;36.99
37710;BME280;60223;34.854;-92.408;2023-04-06T05:22:09;101125.35;;;23.18;36.98
37710;BME280;60223;34.854;-92.408;2023-04-06T05:24:35;101124.27;;;23.27;37.20
37710;BME280;60223;34.854;-92.408;2023-04-06T05:27:00;101116.87;;;23.53;37.21
37710;BME280;60223;34.854;-92.408;2023-04-06T05:29:26;101117.45;;;23.16;37.24
37710;BME280;60223;34.854;-92.408;2023-04-06T05:31:52;101123.72;;;22.94;37.14
37710;BME280;60223;34.854;-92.408;2023-04-06T05:34:16;101132.81;;;23.37;36.54
37710;BME280;60223;34.854;-92.408;2023-04-06T05:36:42;101146.25;;;23.34;36.93
37710;BME280;60223;34.854;-92.408;2023-04-06T05:39:09;101158.77;;;23.08;36.93
37710;BME280;60223;34.854;-92.408;2023-04-06T05:41:32;101173.55;;;22.99;37.08
37710;BME280;60223;34.854;-92.408;2023-04-06T05:44:00;101178.87;;;23.04;36.99
37710;BME280;60223;34.854;-92.408;2023-04-06T05:46:26;101182.89;;;22.97;37.03
37710;BME280;60223;34.854;-92.408;2023-04-06T05:48:50;101179.42;;;22.77;37.36
37710;BME280;60223;34.854;-92.408;2023-04-06T05:51:17;101185.32;;;22.69;37.35
37710;BME280;60223;34.854;-92.408;2023-04-06T05:53:43;101189.75;;;23.20;36.74
37710;BME280;60223;34.854;-92.408;2023-04-06T05:56:09;101199.53;;;23.32;36.82
37710;BME280;60223;34.854;-92.408;2023-04-06T05:58:34;101200.69;;;23.13;36.73
37710;BME280;60223;34.854;-92.408;2023-04-06T06:01:00;101202.26;;;23.03;36.89
37710;BME280;60223;34.854;-92.408;2023-04-06T06:03:25;101212.38;;;23.03;36.74
37710;BME280;60223;34.854;-92.408;2023-04-06T06:05:51;101215.63;;;22.97;36.88
37710;BME280;60223;34.854;-92.408;2023-04-06T06:08:16;101211.86;;;22.98;37.12
37710;BME280;60223;34.854;-92.408;2023-04-06T06:10:43;101211.72;;;23.35;36.63
37710;BME280;60223;34.854;-92.408;2023-04-06T06:13:06;101213.86;;;22.98;36.72
37710;BME280;60223;34.854;-92.408;2023-04-06T06:15:34;101213.55;;;23.21;36.75
37710;BME280;60223;34.854;-92.408;2023-04-06T06:17:59;101210.83;;;23.24;36.49
37710;BME280;60223;34.854;-92.408;2023-04-06T06:20:25;101209.18;;;22.89;36.80
37710;BME280;60223;34.854;-92.408;2023-04-06T06:22:51;101206.44;;;23.08;36.84
37710;BME280;60223;34.854;-92.408;2023-04-06T06:25:15;101210.73;;;22.79;36.86
37710;BME280;60223;34.854;-92.408;2023-04-06T06:27:42;101228.58;;;23.08;37.09
37710;BME280;60223;34.854;-92.408;2023-04-06T06:30:08;101238.53;;;23.03;36.92
37710;BME280;60223;34.854;-92.408;2023-04-06T06:32:34;101242.69;;;23.06;36.80
37710;BME280;60223;34.854;-92.408;2023-04-06T06:34:58;101242.68;;;22.99;36.85
37710;BME280;60223;34.854;-92.408;2023-04-06T06:37:25;101248.27;;;22.95;36.64
37710;BME280;60223;34.854;-92.408;2023-04-06T06:39:51;101242.48;;;23.50;36.53
37710;BME280;60223;34.854;-92.408;2023-04-06T06:42:17;101236.04;;;23.56;36.33
37710;BME280;60223;34.854;-92.408;2023-04-06T06:44:42;101237.03;;;23.19;36.66
37710;BME280;60223;34.854;-92.408;2023-04-06T06:47:08;101226.86;;;23.07;36.66
37710;BME280;60223;34.854;-92.408;2023-04-06T06:49:32;101226.17;;;23.20;36.67
37710;BME280;60223;34.854;-92.408;2023-04-06T06:51:58;101231.44;;;23.40;36.51
37710;BME280;60223;34.854;-92.408;2023-04-06T06:54:24;101228.79;;;23.27;36.27
37710;BME280;60223;34.854;-92.408;2023-04-06T06:56:50;101212.76;;;23.10;36.49
37710;BME280;60223;34.854;-92.408;2023-04-06T06:59:16;101210.42;;;22.92;36.47
37710;BME280;60223;34.854;-92.408;2023-04-06T07:01:42;101226.97;;;22.96;36.57
37710;BME280;60223;34.854;-92.408;2023-04-06T07:04:08;101236.46;;;23.02;36.81
37710;BME280;60223;34.854;-92.408;2023-04-06T07:06:34;101239.49;;;23.05;36.51
37710;BME280;60223;34.854;-92.408;2023-04-06T07:08:59;101230.53;;;22.30;37.06
37710;BME280;60223;34.854;-92.408;2023-04-06T07:11:24;101225.48;;;22.99;36.42
37710;BME280;60223;34.854;-92.408;2023-04-06T07:13:50;101236.57;;;22.71;36.61
37710;BME280;60223;34.854;-92.408;2023-04-06T07:16:17;101238.96;;;22.79;36.28
37710;BME280;60223;34.854;-92.408;2023-04-06T07:18:41;101237.36;;;22.92;36.22
37710;BME280;60223;34.854;-92.408;2023-04-06T07:21:07;101246.02;;;23.10;36.30
37710;BME280;60223;34.854;-92.408;2023-04-06T07:23:32;101260.16;;;22.88;36.47
37710;BME280;60223;34.854;-92.408;2023-04-06T07:25:56;101258.76;;;22.81;36.54
37710;BME280;60223;34.854;-92.408;2023-04-06T07:28:24;101256.43;;;22.27;36.92
37710;BME280;60223;34.854;-92.408;2023-04-06T07:30:50;101266.45;;;22.58;36.45
37710;BME280;60223;34.854;-92.408;2023-04-06T07:33:16;101280.12;;;22.85;36.43
37710;BME280;60223;34.854;-92.408;2023-04-06T07:35:41;101296.50;;;22.88;36.40
37710;BME280;60223;34.854;-92.408;2023-04-06T07:38:06;101299.35;;;22.92;36.34
37710;BME280;60223;34.854;-92.408;2023-04-06T07:40:34;101293.93;;;22.91;36.02
37710;BME280;60223;34.854;-92.408;2023-04-06T07:42:59;101288.70;;;23.08;36.05
37710;BME280;60223;34.854;-92.408;2023-04-06T07:45:24;101306.43;;;22.57;36.61
37710;BME280;60223;34.854;-92.408;2023-04-06T07:47:50;101284.87;;;22.54;36.33
37710;BME280;60223;34.854;-92.408;2023-04-06T07:50:16;101275.76;;;23.28;35.78
37710;BME280;60223;34.854;-92.408;2023-04-06T07:52:40;101279.09;;;22.77;36.33
37710;BME280;60223;34.854;-92.408;2023-04-06T07:55:08;101270.69;;;22.65;36.09
37710;BME280;60223;34.854;-92.408;2023-04-06T07:57:33;101260.93;;;23.17;35.76
37710;BME280;60223;34.854;-92.408;2023-04-06T07:59:59;101248.27;;;22.87;36.15
37710;BME280;60223;34.854;-92.408;2023-04-06T08:02:23;101245.36;;;22.99;35.96
37710;BME280;60223;34.854;-92.408;2023-04-06T08:04:49;101245.96;;;22.81;36.07
37710;BME280;60223;34.854;-92.408;2023-04-06T08:07:16;101242.36;;;23.23;35.62
37710;BME280;60223;34.854;-92.408;2023-04-06T08:09:42;101228.65;;;22.91;36.26
37710;BME280;60223;34.854;-92.408;2023-04-06T08:12:08;101231.46;;;23.33;35.79
37710;BME280;60223;34.854;-92.408;2023-04-06T08:14:32;101214.47;;;22.95;35.85
37710;BME280;60223;34.854;-92.408;2023-04-06T08:16:59;101207.98;;;22.96;36.17
37710;BME280;60223;34.854;-92.408;2023-04-06T08:19:24;101201.98;;;22.87;36.27
37710;BME280;60223;34.854;-92.408;2023-04-06T08:21:50;101189.08;;;23.21;35.72
37710;BME280;60223;34.854;-92.408;2023-04-06T08:24:14;101190.36;;;22.75;36.04
37710;BME280;60223;34.854;-92.408;2023-04-06T08:26:41;101200.12;;;22.83;36.24
37710;BME280;60223;34.854;-92.408;2023-04-06T08:29:07;101205.61;;;22.97;35.65
37710;BME280;60223;34.854;-92.408;2023-04-06T08:31:33;101210.66;;;22.66;36.05
37710;BME280;60223;34.854;-92.408;2023-04-06T08:33:59;101222.01;;;23.07;35.89
37710;BME280;60223;34.854;-92.408;2023-04-06T08:36:23;101239.33;;;23.10;35.83
37710;BME280;60223;34.854;-92.408;2023-04-06T08:38:50;101245.52;;;23.13;35.52
37710;BME280;60223;34.854;-92.408;2023-04-06T08:41:16;101238.97;;;23.01;35.60
37710;BME280;60223;34.854;-92.408;2023-04-06T08:43:46;101229.07;;;22.88;35.97
37710;BME280;60223;34.854;-92.408;2023-04-06T08:46:05;101223.23;;;22.64;35.67
37710;BME280;60223;34.854;-92.408;2023-04-06T08:48:33;101228.84;;;23.12;35.86
37710;BME280;60223;34.854;-92.408;2023-04-06T08:50:59;101235.91;;;23.09;35.66
37710;BME280;60223;34.854;-92.408;2023-04-06T08:53:24;101232.59;;;22.94;35.79
37710;BME280;60223;34.854;-92.408;2023-04-06T08:55:50;101223.98;;;22.74;35.78
37710;BME280;60223;34.854;-92.408;2023-04-06T08:58:15;101231.81;;;23.09;35.76
37710;BME280;60223;34.854;-92.408;2023-04-06T09:00:41;101242.89;;;22.85;35.88
37710;BME280;60223;34.854;-92.408;2023-04-06T09:03:06;101265.89;;;22.75;35.88
37710;BME280;60223;34.854;-92.408;2023-04-06T09:05:33;101266.26;;;22.62;35.88
37710;BME280;60223;34.854;-92.408;2023-04-06T09:07:58;101280.32;;;23.18;35.52
37710;BME280;60223;34.854;-92.408;2023-04-06T09:10:24;101297.89;;;22.65;36.09
37710;BME280;60223;34.854;-92.408;2023-04-06T09:12:49;101297.49;;;22.47;35.88
37710;BME280;60223;34.854;-92.408;2023-04-06T09:15:23;101296.56;;;22.62;35.87
37710;BME280;60223;34.854;-92.408;2023-04-06T09:17:43;101305.19;;;22.92;35.72
37710;BME280;60223;34.854;-92.408;2023-04-06T09:22:38;101332.88;;;23.06;35.51
37710;BME280;60223;34.854;-92.408;2023-04-06T09:24:58;101334.65;;;23.13;35.46
37710;BME280;60223;34.854;-92.408;2023-04-06T09:27:30;101339.86;;;22.71;35.45
37710;BME280;60223;34.854;-92.408;2023-04-06T09:29:49;101355.47;;;22.71;35.50
37710;BME280;60223;34.854;-92.408;2023-04-06T09:32:16;101363.70;;;22.90;35.58
37710;BME280;60223;34.854;-92.408;2023-04-06T09:34:42;101355.56;;;22.79;35.69
37710;BME280;60223;34.854;-92.408;2023-04-06T09:37:12;101338.84;;;22.52;35.68
37710;BME280;60223;34.854;-92.408;2023-04-06T09:39:33;101345.29;;;22.63;35.55
37710;BME280;60223;34.854;-92.408;2023-04-06T09:41:55;101363.08;;;22.64;35.80
37710;BME280;60223;34.854;-92.408;2023-04-06T09:44:24;101356.12;;;22.67;35.75
37710;BME280;60223;34.854;-92.408;2023-04-06T09:46:50;101355.03;;;22.73;35.61
37710;BME280;60223;34.854;-92.408;2023-04-06T09:49:15;101349.26;;;22.59;35.87
37710;BME280;60223;34.854;-92.408;2023-04-06T09:51:44;101350.37;;;22.50;35.97
37710;BME280;60223;34.854;-92.408;2023-04-06T09:54:07;101354.49;;;22.66;35.65
37710;BME280;60223;34.854;-92.408;2023-04-06T09:56:39;101350.94;;;22.35;35.73
37710;BME280;60223;34.854;-92.408;2023-04-06T09:59:02;101347.71;;;22.19;35.88
37710;BME280;60223;34.854;-92.408;2023-04-06T10:01:26;101346.19;;;22.74;35.56
37710;BME280;60223;34.854;-92.408;2023-04-06T10:03:52;101341.08;;;22.65;35.45
37710;BME280;60223;34.854;-92.408;2023-04-06T10:06:17;101344.25;;;22.54;35.59
37710;BME280;60223;34.854;-92.408;2023-04-06T10:08:41;101359.41;;;22.66;35.55
37710;BME280;60223;34.854;-92.408;2023-04-06T10:11:07;101382.46;;;22.97;35.35
37710;BME280;60223;34.854;-92.408;2023-04-06T10:13:32;101393.48;;;22.56;35.67
37710;BME280;60223;34.854;-92.408;2023-04-06T10:15:59;101397.33;;;22.79;35.33
37710;BME280;60223;34.854;-92.408;2023-04-06T10:18:24;101395.89;;;22.72;35.43
37710;BME280;60223;34.854;-92.408;2023-04-06T10:20:54;101402.99;;;22.76;35.37
37710;BME280;60223;34.854;-92.408;2023-04-06T10:23:19;101425.26;;;22.33;35.48
37710;BME280;60223;34.854;-92.408;2023-04-06T10:28:35;101443.27;;;22.44;35.74
37710;BME280;60223;34.854;-92.408;2023-04-06T10:30:33;101461.65;;;22.51;35.48
37710;BME280;60223;34.854;-92.408;2023-04-06T10:32:58;101456.13;;;22.28;35.82
37710;BME280;60223;34.854;-92.408;2023-04-06T10:35:24;101472.97;;;22.40;35.65
37710;BME280;60223;34.854;-92.408;2023-04-06T10:37:51;101482.67;;;22.28;35.55
37710;BME280;60223;34.854;-92.408;2023-04-06T10:42:41;101455.48;;;22.73;35.38
37710;BME280;60223;34.854;-92.408;2023-04-06T10:45:07;101450.97;;;22.44;35.46
37710;BME280;60223;34.854;-92.408;2023-04-06T10:47:39;101457.56;;;22.41;35.55
37710;BME280;60223;34.854;-92.408;2023-04-06T10:49:58;101461.68;;;22.63;35.21
37710;BME280;60223;34.854;-92.408;2023-04-06T10:52:21;101466.65;;;22.17;35.49
37710;BME280;60223;34.854;-92.408;2023-04-06T10:54:50;101476.30;;;22.64;35.28
37710;BME280;60223;34.854;-92.408;2023-04-06T10:57:16;101484.36;;;22.62;35.12
37710;BME280;60223;34.854;-92.408;2023-04-06T10:59:46;101494.87;;;21.99;35.90
37710;BME280;60223;34.854;-92.408;2023-04-06T11:02:07;101497.45;;;22.06;35.77
37710;BME280;60223;34.854;-92.408;2023-04-06T11:04:31;101492.94;;;22.37;35.41
37710;BME280;60223;34.854;-92.408;2023-04-06T11:06:58;101486.76;;;22.47;35.28
37710;BME280;60223;34.854;-92.408;2023-04-06T11:09:27;101486.94;;;22.15;35.68
37710;BME280;60223;34.854;-92.408;2023-04-06T11:11:50;101481.55;;;22.43;35.28
37710;BME280;60223;34.854;-92.408;2023-04-06T11:14:15;101476.18;;;22.27;35.59
37710;BME280;60223;34.854;-92.408;2023-04-06T11:16:41;101476.48;;;22.07;35.90
37710;BME280;60223;34.854;-92.408;2023-04-06T11:19:07;101475.58;;;22.22;35.51
37710;BME280;60223;34.854;-92.408;2023-04-06T11:21:37;101472.01;;;22.41;35.38
37710;BME280;60223;34.854;-92.408;2023-04-06T11:26:24;101485.40;;;21.80;35.85
37710;BME280;60223;34.854;-92.408;2023-04-06T11:28:49;101492.93;;;22.43;35.17
37710;BME280;60223;34.854;-92.408;2023-04-06T11:31:16;101506.44;;;22.27;35.35
37710;BME280;60223;34.854;-92.408;2023-04-06T11:33:41;101518.74;;;22.68;34.81
37710;BME280;60223;34.854;-92.408;2023-04-06T11:36:07;101522.17;;;22.54;35.14
37710;BME280;60223;34.854;-92.408;2023-04-06T11:38:33;101523.17;;;21.96;35.52
37710;BME280;60223;34.854;-92.408;2023-04-06T11:40:59;101527.95;;;22.27;35.16
37710;BME280;60223;34.854;-92.408;2023-04-06T11:43:29;101529.18;;;22.00;35.49
37710;BME280;60223;34.854;-92.408;2023-04-06T11:45:50;101530.40;;;21.81;35.72
37710;BME280;60223;34.854;-92.408;2023-04-06T11:48:22;101527.34;;;22.25;35.22
37710;BME280;60223;34.854;-92.408;2023-04-06T11:50:41;101524.80;;;22.36;35.06
37710;BME280;60223;34.854;-92.408;2023-04-06T11:53:07;101522.56;;;22.25;35.13
37710;BME280;60223;34.854;-92.408;2023-04-06T11:55:36;101523.23;;;22.44;35.58
37710;BME280;60223;34.854;-92.408;2023-04-06T11:57:59;101533.46;;;22.40;34.84
37710;BME280;60223;34.854;-92.408;2023-04-06T12:00:24;101539.73;;;22.43;35.04
37710;BME280;60223;34.854;-92.408;2023-04-06T12:02:50;101548.28;;;22.29;34.81
37710;BME280;60223;34.854;-92.408;2023-04-06T12:05:16;101552.10;;;22.11;35.21
37710;BME280;60223;34.854;-92.408;2023-04-06T12:07:40;101549.42;;;22.17;34.92
37710;BME280;60223;34.854;-92.408;2023-04-06T12:10:05;101545.30;;;22.36;34.93
37710;BME280;60223;34.854;-92.408;2023-04-06T12:12:33;101545.11;;;21.79;35.14
37710;BME280;60223;34.854;-92.408;2023-04-06T12:14:59;101543.54;;;21.20;36.20
37710;BME280;60223;34.854;-92.408;2023-04-06T12:17:25;101542.10;;;21.30;35.92
37710;BME280;60223;34.854;-92.408;2023-04-06T12:19:49;101543.90;;;21.95;35.35
37710;BME280;60223;34.854;-92.408;2023-04-06T12:22:17;101535.03;;;22.11;34.83
37710;BME280;60223;34.854;-92.408;2023-04-06T12:24:40;101529.95;;;20.64;36.29
37710;BME280;60223;34.854;-92.408;2023-04-06T12:27:06;101529.70;;;21.65;35.46
37710;BME280;60223;34.854;-92.408;2023-04-06T12:29:33;101540.76;;;21.66;35.63
37710;BME280;60223;34.854;-92.408;2023-04-06T12:31:59;101543.23;;;21.87;35.17
37710;BME280;60223;34.854;-92.408;2023-04-06T12:34:23;101542.68;;;22.41;34.80